createdAt,value
2018-03-23T00:00:51.692Z,100670.28
2018-03-23T00:03:17.755Z,100668.05
2018-03-23T00:05:43.720Z,100667.64
2018-03-23T00:08:09.676Z,100666.19
2018-03-23T00:10:35.637Z,100663.39
2018-03-23T00:13:01.605Z,100662.88
2018-03-23T00:15:27.561Z,100658.70
2018-03-23T00:17:53.530Z,100656.38
2018-03-23T00:20:19.485Z,100653.85
2018-03-23T00:22:45.446Z,100655.30
2018-03-23T00:25:11.423Z,100656.17
2018-03-23T00:27:37.401Z,100651.71
2018-03-23T00:30:03.338Z,100649.50
2018-03-23T00:32:29.309Z,100650.33
2018-03-23T00:34:55.294Z,100652.64
2018-03-23T00:37:21.259Z,100649.92
2018-03-23T00:39:47.230Z,100648.17
2018-03-23T00:42:13.207Z,100648.05
2018-03-23T00:44:39.177Z,100641.10
2018-03-23T00:47:05.134Z,100643.05
2018-03-23T00:49:31.192Z,100642.42
2018-03-23T00:51:57.146Z,100640.61
2018-03-23T00:54:23.099Z,100640.08
2018-03-23T00:56:49.046Z,100636.75
2018-03-23T00:59:15.023Z,100633.42
2018-03-23T01:01:40.998Z,100629.45
2018-03-23T01:04:06.995Z,100628.84
2018-03-23T01:06:33.002Z,100631.84
2018-03-23T01:08:58.929Z,100626.78
2018-03-23T01:11:24.882Z,100621.86
2018-03-23T01:13:50.831Z,100625.59
2018-03-23T01:16:16.783Z,100619.55
2018-03-23T01:18:42.757Z,100620.95
2018-03-23T01:21:08.717Z,100617.70
2018-03-23T01:23:34.733Z,100613.75
2018-03-23T01:26:00.690Z,100611.04
2018-03-23T01:28:26.652Z,100608.80
2018-03-23T01:30:52.633Z,100607.30
2018-03-23T01:33:18.599Z,100595.41
2018-03-23T01:35:44.583Z,100600.88
2018-03-23T01:38:10.543Z,100594.97
2018-03-23T01:40:36.519Z,100591.89
2018-03-23T01:43:02.469Z,100593.41
2018-03-23T01:45:28.459Z,100592.34
2018-03-23T01:47:54.439Z,100587.29
2018-03-23T01:50:20.401Z,100585.61
2018-03-23T01:52:46.390Z,100583.86
2018-03-23T01:55:12.346Z,100579.84
2018-03-23T01:57:38.314Z,100579.09
2018-03-23T02:00:04.293Z,100574.37
2018-03-23T02:02:30.256Z,100572.02
2018-03-23T02:04:56.234Z,100571.89
2018-03-23T02:07:22.195Z,100562.49
2018-03-23T02:09:48.191Z,100566.47
2018-03-23T02:12:14.150Z,100557.75
2018-03-23T02:14:40.125Z,100562.06
2018-03-23T02:17:06.081Z,100549.56
2018-03-23T02:19:32.046Z,100549.09
2018-03-23T02:21:58.017Z,100550.73
2018-03-23T02:24:23.957Z,100548.63
2018-03-23T02:26:49.957Z,100544.59
2018-03-23T02:29:15.922Z,100539.52
2018-03-23T02:31:41.922Z,100540.52
2018-03-23T02:34:07.879Z,100533.02
2018-03-23T02:36:33.832Z,100535.02
2018-03-23T02:38:59.790Z,100538.07
2018-03-23T02:41:25.764Z,100537.60
2018-03-23T02:43:51.742Z,100529.67
2018-03-23T02:46:17.719Z,100533.44
2018-03-23T02:48:43.683Z,100535.37
2018-03-23T02:51:09.654Z,100531.58
2018-03-23T02:53:35.700Z,100528.50
2018-03-23T02:56:01.665Z,100526.79
2018-03-23T02:58:27.629Z,100524.16
2018-03-23T03:00:53.611Z,100522.49
2018-03-23T03:03:19.573Z,100523.12
2018-03-23T03:05:45.547Z,100520.41
2018-03-23T03:08:11.512Z,100513.20
2018-03-23T03:10:37.462Z,100515.63
2018-03-23T03:13:03.411Z,100512.17
2018-03-23T03:15:29.374Z,100509.81
2018-03-23T03:17:55.338Z,100501.85
2018-03-23T03:20:21.317Z,100498.58
2018-03-23T03:22:47.293Z,100501.14
2018-03-23T03:25:13.258Z,100493.05
2018-03-23T03:27:39.215Z,100494.28
2018-03-23T03:30:05.177Z,100493.05
2018-03-23T03:32:31.169Z,100485.52
2018-03-23T03:34:57.150Z,100487.12
2018-03-23T03:37:23.123Z,100484.75
2018-03-23T03:39:49.130Z,100485.50
2018-03-23T03:42:15.085Z,100478.20
2018-03-23T03:44:41.106Z,100478.50
2018-03-23T03:47:07.057Z,100477.09
2018-03-23T03:49:33.039Z,100480.61
2018-03-23T03:51:59.008Z,100475.89
2018-03-23T03:54:24.984Z,100470.92
2018-03-23T03:56:50.934Z,100474.37
2018-03-23T03:59:16.885Z,100471.55
2018-03-23T04:01:42.870Z,100469.05
2018-03-23T04:04:08.824Z,100467.22
2018-03-23T04:06:34.843Z,100467.53
2018-03-23T04:09:00.798Z,100470.44
2018-03-23T04:11:26.782Z,100469.48
2018-03-23T04:13:52.753Z,100472.67
2018-03-23T04:16:18.947Z,100471.34
2018-03-23T04:18:44.917Z,100468.92
2018-03-23T04:21:10.890Z,100471.49
2018-03-23T04:23:36.843Z,100468.94
2018-03-23T04:26:02.800Z,100465.58
2018-03-23T04:28:28.772Z,100461.30
2018-03-23T04:30:54.750Z,100465.63
2018-03-23T04:33:20.706Z,100461.25
2018-03-23T04:35:46.687Z,100459.56
2018-03-23T04:38:12.738Z,100458.30
2018-03-23T04:40:38.674Z,100463.30
2018-03-23T04:43:04.631Z,100457.76
2018-03-23T04:45:30.609Z,100454.80
2018-03-23T04:47:56.584Z,100444.97
2018-03-23T04:50:22.534Z,100437.39
2018-03-23T04:52:48.514Z,100439.92
2018-03-23T04:55:14.488Z,100437.97
2018-03-23T04:57:40.438Z,100434.91
2018-03-23T05:00:06.395Z,100438.08
2018-03-23T05:02:32.355Z,100428.91
2018-03-23T05:04:58.310Z,100427.14
2018-03-23T05:07:24.289Z,100428.20
2018-03-23T05:09:50.267Z,100428.49
2018-03-23T05:12:16.254Z,100428.16
2018-03-23T05:14:42.169Z,100430.20
2018-03-23T05:17:08.126Z,100426.38
2018-03-23T05:19:34.081Z,100427.59
2018-03-23T05:22:00.075Z,100422.05
2018-03-23T05:24:26.022Z,100422.66
2018-03-23T05:26:52.069Z,100427.41
2018-03-23T05:29:18.060Z,100424.05
2018-03-23T05:31:44.006Z,100419.72
2018-03-23T05:34:09.958Z,100421.38
2018-03-23T05:36:35.960Z,100415.59
2018-03-23T05:39:01.925Z,100417.28
2018-03-23T05:41:27.895Z,100417.46
2018-03-23T05:43:53.859Z,100417.92
2018-03-23T05:46:19.887Z,100416.01
2018-03-23T05:48:45.797Z,100413.87
2018-03-23T05:51:11.759Z,100416.23
2018-03-23T05:53:37.722Z,100417.31
2018-03-23T05:56:03.726Z,100417.40
2018-03-23T05:58:29.694Z,100414.04
2018-03-23T06:00:55.677Z,100415.58
2018-03-23T06:03:21.655Z,100416.27
2018-03-23T06:05:47.662Z,100414.27
2018-03-23T06:08:13.819Z,100407.38
2018-03-23T06:10:39.819Z,100409.81
2018-03-23T06:13:05.778Z,100408.12
2018-03-23T06:15:31.739Z,100405.77
2018-03-23T06:17:57.688Z,100407.05
2018-03-23T06:20:23.714Z,100410.19
2018-03-23T06:22:49.741Z,100408.60
2018-03-23T06:25:15.695Z,100405.55
2018-03-23T06:27:41.642Z,100408.01
2018-03-23T06:30:07.599Z,100407.47
2018-03-23T06:32:33.572Z,100408.78
2018-03-23T06:34:59.546Z,100402.86
2018-03-23T06:37:25.543Z,100414.43
2018-03-23T06:39:51.509Z,100406.05
2018-03-23T06:42:17.478Z,100409.83
2018-03-23T06:44:43.429Z,100407.92
2018-03-23T06:47:09.442Z,100411.88
2018-03-23T06:49:35.357Z,100404.59
2018-03-23T06:52:01.331Z,100405.95
2018-03-23T06:54:27.352Z,100405.95
2018-03-23T06:56:53.281Z,100400.04
2018-03-23T06:59:19.250Z,100401.62
2018-03-23T07:01:45.211Z,100404.31
2018-03-23T07:04:11.174Z,100397.81
2018-03-23T07:06:37.172Z,100392.27
2018-03-23T07:09:03.130Z,100395.08
2018-03-23T07:11:29.085Z,100390.81
2018-03-23T07:13:55.046Z,100392.41
2018-03-23T07:16:20.992Z,100394.38
2018-03-23T07:18:46.992Z,100394.05
2018-03-23T07:21:12.899Z,100397.59
2018-03-23T07:23:38.882Z,100395.22
2018-03-23T07:26:04.830Z,100400.14
2018-03-23T07:28:30.807Z,100399.77
2018-03-23T07:30:56.766Z,100398.94
2018-03-23T07:33:22.718Z,100396.45
2018-03-23T07:35:48.677Z,100401.00
2018-03-23T07:38:14.657Z,100402.22
2018-03-23T07:40:40.606Z,100400.36
2018-03-23T07:43:06.592Z,100398.72
2018-03-23T07:45:32.551Z,100400.75
2018-03-23T07:47:58.502Z,100392.31
2018-03-23T07:50:24.461Z,100389.63
2018-03-23T07:52:50.425Z,100385.84
2018-03-23T07:55:16.374Z,100386.91
2018-03-23T07:57:42.351Z,100384.95
2018-03-23T08:00:08.306Z,100382.96
2018-03-23T08:02:34.270Z,100378.98
2018-03-23T08:05:00.323Z,100384.22
2018-03-23T08:07:26.261Z,100379.45
2018-03-23T08:09:52.343Z,100377.05
2018-03-23T08:12:18.308Z,100373.27
2018-03-23T08:14:44.282Z,100366.08
2018-03-23T08:17:10.256Z,100366.31
2018-03-23T08:19:36.290Z,100361.00
2018-03-23T08:22:02.254Z,100358.95
2018-03-23T08:24:28.235Z,100357.31
2018-03-23T08:26:54.193Z,100357.77
2018-03-23T08:29:20.151Z,100352.27
2018-03-23T08:31:46.162Z,100359.31
2018-03-23T08:34:12.134Z,100352.09
2018-03-23T08:36:38.094Z,100345.35
2018-03-23T08:39:04.077Z,100349.18
2018-03-23T08:41:30.055Z,100346.17
2018-03-23T08:43:56.068Z,100349.09
2018-03-23T08:46:22.028Z,100345.95
2018-03-23T08:48:47.989Z,100338.77
2018-03-23T08:51:13.942Z,100332.64
2018-03-23T08:53:39.924Z,100335.01
2018-03-23T08:56:05.899Z,100335.34
2018-03-23T08:58:31.844Z,100331.80
2018-03-23T09:00:57.818Z,100338.03
2018-03-23T09:03:23.769Z,100341.72
2018-03-23T09:05:49.734Z,100337.95
2018-03-23T09:08:15.706Z,100334.17
2018-03-23T09:10:41.695Z,100332.44
2018-03-23T09:13:07.674Z,100329.07
2018-03-23T09:15:33.674Z,100329.07
2018-03-23T09:17:59.622Z,100325.00
2018-03-23T09:20:25.585Z,100318.53
2018-03-23T09:22:51.546Z,100318.32
2018-03-23T09:25:17.534Z,100309.13
2018-03-23T09:27:43.562Z,100302.93
2018-03-23T09:30:09.509Z,100291.56
2018-03-23T09:32:35.477Z,100292.30
2018-03-23T09:35:01.449Z,100283.38
2018-03-23T09:37:27.418Z,100286.06
2018-03-23T09:39:53.394Z,100287.02
2018-03-23T09:42:19.366Z,100290.02
2018-03-23T09:44:45.324Z,100279.06
2018-03-23T09:47:11.306Z,100283.69
2018-03-23T09:49:37.262Z,100278.06
2018-03-23T09:52:03.224Z,100282.02
2018-03-23T09:54:29.187Z,100273.73
2018-03-23T09:56:55.152Z,100267.13
2018-03-23T09:59:21.122Z,100264.73
2018-03-23T10:01:47.238Z,100260.19
2018-03-23T10:04:13.309Z,100250.98
2018-03-23T10:06:39.266Z,100245.34
2018-03-23T10:09:05.247Z,100245.98
2018-03-23T10:11:31.210Z,100240.27
2018-03-23T10:13:57.194Z,100239.20
2018-03-23T10:16:23.165Z,100242.20
2018-03-23T10:18:49.132Z,100235.48
2018-03-23T10:21:15.107Z,100229.53
2018-03-23T10:23:41.027Z,100224.38
2018-03-23T10:26:07.027Z,100224.76
2018-03-23T10:28:32.997Z,100224.49
2018-03-23T10:30:59.089Z,100222.35
2018-03-23T10:33:25.078Z,100224.38
2018-03-23T10:35:51.079Z,100222.56
2018-03-23T10:38:17.082Z,100215.97
2018-03-23T10:40:43.065Z,100212.30
2018-03-23T10:43:09.010Z,100207.05
2018-03-23T10:45:34.949Z,100202.20
2018-03-23T10:48:00.969Z,100199.03
2018-03-23T10:50:26.922Z,100199.55
2018-03-23T10:52:52.925Z,100194.10
2018-03-23T10:55:18.923Z,100188.42
2018-03-23T10:57:44.874Z,100191.12
2018-03-23T11:00:10.811Z,100186.22
2018-03-23T11:02:36.967Z,100191.41
2018-03-23T11:05:02.942Z,100183.17
2018-03-23T11:07:28.959Z,100175.26
2018-03-23T11:09:54.914Z,100174.84
2018-03-23T11:12:20.962Z,100173.80
2018-03-23T11:14:47.022Z,100168.84
2018-03-23T11:17:13.066Z,100170.59
2018-03-23T11:19:39.026Z,100166.95
2018-03-23T11:22:04.994Z,100160.66
2018-03-23T11:24:31.012Z,100160.25
2018-03-23T11:26:56.946Z,100151.80
2018-03-23T11:29:22.915Z,100145.61
2018-03-23T11:31:48.853Z,100144.88
2018-03-23T11:34:14.826Z,100138.61
2018-03-23T11:36:40.798Z,100136.73
2018-03-23T11:39:06.745Z,100131.16
2018-03-23T11:41:32.752Z,100133.40
2018-03-23T11:43:58.722Z,100129.53
2018-03-23T11:46:24.669Z,100128.71
2018-03-23T11:48:50.638Z,100119.63
2018-03-23T11:51:16.608Z,100116.98
2018-03-23T11:53:42.553Z,100118.08
2018-03-23T11:56:08.522Z,100106.91
2018-03-23T11:58:34.516Z,100110.66
2018-03-23T12:01:00.482Z,100105.63
2018-03-23T12:03:26.478Z,100104.42
2018-03-23T12:05:52.489Z,100103.31
2018-03-23T12:08:18.449Z,100096.89
2018-03-23T12:10:44.433Z,100092.84
2018-03-23T12:13:10.402Z,100091.14
2018-03-23T12:15:36.389Z,100084.77
2018-03-23T12:18:02.346Z,100085.63
2018-03-23T12:20:28.335Z,100077.27
2018-03-23T12:22:54.314Z,100076.85
2018-03-23T12:25:20.304Z,100070.67
2018-03-23T12:27:46.272Z,100078.54
2018-03-23T12:30:12.228Z,100071.42
2018-03-23T12:32:38.210Z,100070.67
2018-03-23T12:35:04.162Z,100067.53
2018-03-23T12:37:30.142Z,100066.83
2018-03-23T12:39:56.127Z,100065.25
2018-03-23T12:42:22.113Z,100062.61
2018-03-23T12:44:48.113Z,100062.78
2018-03-23T12:47:14.059Z,100059.20
2018-03-23T12:49:40.006Z,100056.27
2018-03-23T12:52:05.961Z,100057.34
2018-03-23T12:54:31.932Z,100052.62
2018-03-23T12:56:57.898Z,100049.93
2018-03-23T12:59:23.899Z,100046.05
2018-03-23T13:01:49.886Z,100044.64
2018-03-23T13:04:15.863Z,100039.80
2018-03-23T13:06:41.833Z,100043.70
2018-03-23T13:09:07.785Z,100040.44
2018-03-23T13:11:33.887Z,100039.38
2018-03-23T13:13:59.835Z,100036.59
2018-03-23T13:16:25.800Z,100025.03
2018-03-23T13:18:51.888Z,100028.28
2018-03-23T13:21:17.877Z,100031.38
2018-03-23T13:23:43.865Z,100027.34
2018-03-23T13:26:09.859Z,100023.71
2018-03-23T13:28:35.848Z,100019.34
2018-03-23T13:31:01.811Z,100019.20
2018-03-23T13:33:27.787Z,100018.73
2018-03-23T13:35:53.775Z,100017.02
2018-03-23T13:38:19.782Z,100010.48
2018-03-23T13:40:45.757Z,100007.93
2018-03-23T13:43:11.741Z,100004.14
2018-03-23T13:45:37.731Z,100004.31
2018-03-23T13:48:03.721Z,99999.20
2018-03-23T13:50:29.839Z,99999.78
2018-03-23T13:52:55.853Z,99999.03
2018-03-23T13:55:21.913Z,99997.30
2018-03-23T13:57:47.896Z,99997.55
2018-03-23T14:00:13.881Z,99995.33
2018-03-23T14:02:39.846Z,99993.48
2018-03-23T14:05:05.811Z,99987.16
2018-03-23T14:07:31.853Z,99985.20
2018-03-23T14:09:57.843Z,99981.89
2018-03-23T14:12:23.814Z,99988.23
2018-03-23T14:14:49.956Z,99987.15
2018-03-23T14:17:15.935Z,99987.58
2018-03-23T14:19:41.887Z,99989.22
2018-03-23T14:22:07.902Z,99986.58
2018-03-23T14:24:33.817Z,99985.09
2018-03-23T14:26:59.817Z,99983.34
2018-03-23T14:29:25.832Z,99971.00
2018-03-23T14:31:51.774Z,99973.16
2018-03-23T14:34:17.737Z,99968.70
2018-03-23T14:36:43.714Z,99974.48
2018-03-23T14:39:09.721Z,99968.95
2018-03-23T14:41:35.690Z,99968.06
2018-03-23T14:44:01.660Z,99960.22
2018-03-23T14:46:27.630Z,99963.09
2018-03-23T14:48:53.618Z,99961.96
2018-03-23T14:51:19.583Z,99965.97
2018-03-23T14:53:45.574Z,99964.14
2018-03-23T14:56:11.734Z,99962.87
2018-03-23T14:58:37.680Z,99962.80
2018-03-23T15:01:03.654Z,99956.35
2018-03-23T15:03:29.619Z,99954.64
2018-03-23T15:05:55.620Z,99950.02
2018-03-23T15:08:23.048Z,99951.25
2018-03-23T15:10:49.069Z,99948.53
2018-03-23T15:13:15.065Z,99951.58
2018-03-23T15:15:41.037Z,99952.23
2018-03-23T15:18:07.016Z,99947.92
2018-03-23T15:20:32.983Z,99947.87
2018-03-23T15:22:58.953Z,99947.22
2018-03-23T15:25:24.920Z,99940.61
2018-03-23T15:27:50.884Z,99947.55
2018-03-23T15:30:16.840Z,99942.75
2018-03-23T15:32:42.829Z,99947.05
2018-03-23T15:35:08.800Z,99942.66
2018-03-23T15:37:34.759Z,99941.27
2018-03-23T15:40:00.703Z,99948.05
2018-03-23T15:42:26.646Z,99935.52
2018-03-23T15:44:52.662Z,99936.06
2018-03-23T15:47:18.614Z,99931.80
2018-03-23T15:49:44.574Z,99931.64
2018-03-23T15:52:10.542Z,99932.63
2018-03-23T15:54:36.489Z,99937.48
2018-03-23T15:57:02.448Z,99928.27
2018-03-23T15:59:28.422Z,99929.32
2018-03-23T16:01:54.440Z,99920.50
2018-03-23T16:04:20.380Z,99921.58
2018-03-23T16:06:46.329Z,99920.93
2018-03-23T16:09:12.287Z,99914.97
2018-03-23T16:11:38.269Z,99916.30
2018-03-23T16:14:04.251Z,99912.95
2018-03-23T16:16:30.214Z,99917.03
2018-03-23T16:18:56.169Z,99908.49
2018-03-23T16:21:22.124Z,99911.11
2018-03-23T16:23:48.090Z,99918.55
2018-03-23T16:26:14.067Z,99916.47
2018-03-23T16:28:40.028Z,99912.84
2018-03-23T16:31:06.007Z,99914.56
2018-03-23T16:33:31.987Z,99900.57
2018-03-23T16:35:57.958Z,99910.30
2018-03-23T16:38:23.941Z,99901.64
2018-03-23T16:40:49.904Z,99900.84
2018-03-23T16:43:15.859Z,99905.36
2018-03-23T16:45:41.872Z,99909.14
2018-03-23T16:48:07.837Z,99905.45
2018-03-23T16:50:33.837Z,99901.83
2018-03-23T16:52:59.813Z,99894.64
2018-03-23T16:55:25.909Z,99903.53
2018-03-23T16:57:51.906Z,99901.90
2018-03-23T17:00:17.865Z,99891.77
2018-03-23T17:02:43.853Z,99897.20
2018-03-23T17:05:09.811Z,99891.61
2018-03-23T17:07:35.774Z,99887.82
2018-03-23T17:10:01.738Z,99890.88
2018-03-23T17:12:27.767Z,99885.14
2018-03-23T17:14:53.725Z,99881.84
2018-03-23T17:17:19.713Z,99884.02
2018-03-23T17:19:45.681Z,99883.02
2018-03-23T17:22:11.691Z,99883.59
2018-03-23T17:24:37.646Z,99892.49
2018-03-23T17:27:03.651Z,99889.38
2018-03-23T17:29:29.720Z,99889.63
2018-03-23T17:31:55.682Z,99895.14
2018-03-23T17:34:21.770Z,99889.22
2018-03-23T17:36:47.767Z,99888.55
2018-03-23T17:39:13.854Z,99879.07
2018-03-23T17:41:39.824Z,99881.80
2018-03-23T17:44:06.046Z,99880.23
2018-03-23T17:46:32.025Z,99879.59
2018-03-23T17:48:58.073Z,99883.84
2018-03-23T17:51:24.012Z,99894.81
2018-03-23T17:53:50.279Z,99889.20
2018-03-23T17:56:16.268Z,99896.55
2018-03-23T17:58:42.247Z,99888.98
2018-03-23T18:01:08.471Z,99895.52
2018-03-23T18:03:34.535Z,99893.30
2018-03-23T18:06:00.592Z,99891.93
2018-03-23T18:08:26.571Z,99883.20
2018-03-23T18:10:52.550Z,99890.45
2018-03-23T18:13:18.534Z,99896.78
2018-03-23T18:15:44.485Z,99889.61
2018-03-23T18:18:10.483Z,99893.49
2018-03-23T18:20:36.430Z,99893.35
2018-03-23T18:23:02.430Z,99888.61
2018-03-23T18:25:28.428Z,99883.02
2018-03-23T18:27:54.401Z,99880.22
2018-03-23T18:30:20.369Z,99885.25
2018-03-23T18:32:46.350Z,99890.27
2018-03-23T18:35:12.311Z,99881.88
2018-03-23T18:37:38.299Z,99881.70
2018-03-23T18:40:04.260Z,99883.94
2018-03-23T18:42:30.293Z,99886.34
2018-03-23T18:44:56.266Z,99887.72
2018-03-23T18:47:22.222Z,99893.34
2018-03-23T18:49:48.194Z,99892.01
2018-03-23T18:52:14.148Z,99892.59
2018-03-23T18:54:40.107Z,99889.03
2018-03-23T18:57:07.277Z,99888.80
2018-03-23T18:59:33.243Z,99886.72
2018-03-23T19:01:59.262Z,99888.38
2018-03-23T19:04:25.245Z,99886.90
2018-03-23T19:06:51.215Z,99880.22
2018-03-23T19:09:17.173Z,99871.99
2018-03-23T19:11:43.138Z,99877.09
2018-03-23T19:14:09.131Z,99878.83
2018-03-23T19:16:35.099Z,99874.39
2018-03-23T19:19:01.077Z,99873.96
2018-03-23T19:21:27.034Z,99873.06
2018-03-23T19:23:53.040Z,99875.45
2018-03-23T19:26:18.987Z,99876.36
2018-03-23T19:28:44.958Z,99869.69
2018-03-23T19:31:10.930Z,99862.47
2018-03-23T19:33:36.903Z,99864.34
2018-03-23T19:36:02.934Z,99863.94
2018-03-23T19:38:28.891Z,99861.20
2018-03-23T19:40:54.851Z,99860.95
2018-03-23T19:43:20.809Z,99860.22
2018-03-23T19:45:46.858Z,99863.75
2018-03-23T19:48:12.810Z,99863.77
2018-03-23T19:50:38.806Z,99872.41
2018-03-23T19:53:04.791Z,99864.00
2018-03-23T19:55:30.780Z,99858.56
2018-03-23T19:57:56.728Z,99848.09
2018-03-23T20:00:22.665Z,99850.97
2018-03-23T20:02:48.680Z,99851.11
2018-03-23T20:05:14.604Z,99854.52
2018-03-23T20:07:40.559Z,99848.69
2018-03-23T20:10:06.526Z,99851.56
2018-03-23T20:12:32.525Z,99845.95
2018-03-23T20:14:58.485Z,99843.41
2018-03-23T20:17:24.459Z,99838.12
2018-03-23T20:19:50.423Z,99835.77
2018-03-23T20:22:16.392Z,99834.50
2018-03-23T20:24:42.370Z,99834.99
2018-03-23T20:27:08.354Z,99829.61
2018-03-23T20:29:34.322Z,99830.95
2018-03-23T20:32:00.281Z,99824.55
2018-03-23T20:34:26.270Z,99827.66
2018-03-23T20:36:52.230Z,99827.09
2018-03-23T20:39:18.190Z,99825.68
2018-03-23T20:41:44.162Z,99830.42
2018-03-23T20:44:10.182Z,99824.05
2018-03-23T20:46:36.153Z,99820.66
2018-03-23T20:49:02.114Z,99813.79
2018-03-23T20:51:28.101Z,99814.41
2018-03-23T20:53:54.083Z,99813.00
2018-03-23T20:56:20.057Z,99809.04
2018-03-23T20:58:46.041Z,99818.97
2018-03-23T21:01:11.994Z,99813.34
2018-03-23T21:03:37.950Z,99808.67
2018-03-23T21:06:03.955Z,99813.81
2018-03-23T21:08:29.924Z,99807.32
2018-03-23T21:10:55.904Z,99805.09
2018-03-23T21:13:22.062Z,99802.81
2018-03-23T21:15:48.033Z,99798.66
2018-03-23T21:18:14.000Z,99806.34
2018-03-23T21:20:39.969Z,99796.95
2018-03-23T21:23:05.961Z,99790.27
2018-03-23T21:25:31.923Z,99793.00
2018-03-23T21:27:57.894Z,99786.88
2018-03-23T21:30:23.909Z,99789.86
2018-03-23T21:32:49.892Z,99793.57
2018-03-23T21:35:15.904Z,99786.24
2018-03-23T21:37:41.857Z,99795.03
2018-03-23T21:40:07.815Z,99785.41
2018-03-23T21:42:33.777Z,99785.83
2018-03-23T21:44:59.761Z,99786.17
2018-03-23T21:47:25.725Z,99784.25
2018-03-23T21:49:51.695Z,99777.58
2018-03-23T21:52:17.662Z,99777.27
2018-03-23T21:54:43.630Z,99772.66
2018-03-23T21:57:09.598Z,99773.70
2018-03-23T21:59:35.568Z,99768.22
2018-03-23T22:02:01.535Z,99768.69
2018-03-23T22:04:27.535Z,99764.41
2018-03-23T22:06:53.483Z,99765.73
2018-03-23T22:09:19.445Z,99771.16
2018-03-23T22:11:45.402Z,99766.48
2018-03-23T22:14:11.410Z,99766.55
2018-03-23T22:16:37.414Z,99761.47
2018-03-23T22:19:03.392Z,99762.84
2018-03-23T22:21:29.407Z,99758.67
2018-03-23T22:23:55.459Z,99756.44
2018-03-23T22:26:21.392Z,99759.83
2018-03-23T22:28:47.368Z,99760.53
2018-03-23T22:31:13.378Z,99763.52
2018-03-23T22:33:39.351Z,99760.31
2018-03-23T22:36:05.310Z,99753.32
2018-03-23T22:38:31.283Z,99757.73
2018-03-23T22:40:57.263Z,99747.80
2018-03-23T22:43:23.205Z,99751.98
2018-03-23T22:45:49.185Z,99744.81
2018-03-23T22:48:15.165Z,99742.67
2018-03-23T22:50:41.112Z,99737.48
2018-03-23T22:53:07.082Z,99738.98
2018-03-23T22:55:33.226Z,99734.95
2018-03-23T22:57:59.158Z,99734.20
2018-03-23T23:00:25.185Z,99728.03
2018-03-23T23:02:51.145Z,99736.50
2018-03-23T23:05:17.099Z,99727.62
2018-03-23T23:07:43.071Z,99726.81
2018-03-23T23:10:09.013Z,99724.48
2018-03-23T23:12:34.978Z,99727.46
2018-03-23T23:15:00.967Z,99719.47
2018-03-23T23:17:26.918Z,99717.58
2018-03-23T23:19:52.956Z,99718.98
2018-03-23T23:22:18.918Z,99711.91
2018-03-23T23:24:44.858Z,99715.84
2018-03-23T23:27:10.854Z,99703.18
2018-03-23T23:29:36.862Z,99711.33
2018-03-23T23:32:02.841Z,99710.48
2018-03-23T23:34:28.804Z,99707.94
2018-03-23T23:36:54.779Z,99703.83
2018-03-23T23:39:20.752Z,99704.83
2018-03-23T23:41:46.726Z,99700.03
2018-03-23T23:44:12.684Z,99695.10
2018-03-23T23:46:38.643Z,99689.59
2018-03-23T23:49:04.611Z,99692.97
2018-03-23T23:51:30.594Z,99687.55
2018-03-23T23:53:56.553Z,99690.83
2018-03-23T23:56:22.526Z,99680.80
2018-03-23T23:58:48.470Z,99683.66
